sensor_id;sensor_type;location;lat;lon;timestamp;P1;durP1;ratioP1;P2;durP2;ratioP2
38613;SDS011;24369;49.480;8.488;2022-08-01T00:00:34;191.88;;;175.52;;
38613;SDS011;24369;49.480;8.488;2022-08-01T00:03:00;186.23;;;171.52;;
38613;SDS011;24369;49.480;8.488;2022-08-01T00:05:25;184.73;;;169.18;;
38613;SDS011;24369;49.480;8.488;2022-08-01T00:07:54;169.35;;;154.85;;
38613;SDS011;24369;49.480;8.488;2022-08-01T00:10:19;198.07;;;180.35;;
38613;SDS011;24369;49.480;8.488;2022-08-01T00:12:47;187.25;;;172.00;;
38613;SDS011;24369;49.480;8.488;2022-08-01T00:15:15;182.05;;;165.80;;
38613;SDS011;24369;49.480;8.488;2022-08-01T00:17:42;191.88;;;175.60;;
38613;SDS011;24369;49.480;8.488;2022-08-01T00:20:09;183.18;;;167.57;;
38613;SDS011;24369;49.480;8.488;2022-08-01T00:22:36;167.90;;;153.23;;
38613;SDS011;24369;49.480;8.488;2022-08-01T00:25:03;172.10;;;157.20;;
38613;SDS011;24369;49.480;8.488;2022-08-01T00:27:29;184.60;;;167.73;;
38613;SDS011;24369;49.480;8.488;2022-08-01T00:29:56;166.93;;;152.18;;
38613;SDS011;24369;49.480;8.488;2022-08-01T00:32:22;184.77;;;167.75;;
38613;SDS011;24369;49.480;8.488;2022-08-01T00:34:47;187.07;;;170.57;;
38613;SDS011;24369;49.480;8.488;2022-08-01T00:37:12;173.65;;;157.10;;
38613;SDS011;24369;49.480;8.488;2022-08-01T00:39:38;175.45;;;160.02;;
38613;SDS011;24369;49.480;8.488;2022-08-01T00:42:08;162.30;;;147.93;;
38613;SDS011;24369;49.480;8.488;2022-08-01T00:44:35;175.68;;;159.50;;
38613;SDS011;24369;49.480;8.488;2022-08-01T00:47:00;163.18;;;148.45;;
38613;SDS011;24369;49.480;8.488;2022-08-01T00:49:27;181.93;;;164.75;;
38613;SDS011;24369;49.480;8.488;2022-08-01T00:51:52;175.43;;;160.13;;
38613;SDS011;24369;49.480;8.488;2022-08-01T00:54:18;161.68;;;147.32;;
38613;SDS011;24369;49.480;8.488;2022-08-01T00:56:44;176.27;;;159.70;;
38613;SDS011;24369;49.480;8.488;2022-08-01T00:59:11;179.43;;;162.75;;
38613;SDS011;24369;49.480;8.488;2022-08-01T01:01:37;176.93;;;160.60;;
38613;SDS011;24369;49.480;8.488;2022-08-01T01:04:02;161.68;;;147.35;;
38613;SDS011;24369;49.480;8.488;2022-08-01T01:06:41;186.45;;;168.60;;
38613;SDS011;24369;49.480;8.488;2022-08-01T01:14:39;178.20;;;161.32;;
38613;SDS011;24369;49.480;8.488;2022-08-01T01:17:09;165.43;;;150.67;;
38613;SDS011;24369;49.480;8.488;2022-08-01T01:19:41;170.52;;;154.60;;
38613;SDS011;24369;49.480;8.488;2022-08-01T01:25:22;170.93;;;156.00;;
38613;SDS011;24369;49.480;8.488;2022-08-01T01:28:24;161.20;;;146.85;;
38613;SDS011;24369;49.480;8.488;2022-08-01T01:30:58;167.38;;;151.85;;
38613;SDS011;24369;49.480;8.488;2022-08-01T01:33:25;183.07;;;165.93;;
38613;SDS011;24369;49.480;8.488;2022-08-01T01:36:01;156.43;;;141.23;;
38613;SDS011;24369;49.480;8.488;2022-08-01T01:38:34;180.60;;;163.90;;
38613;SDS011;24369;49.480;8.488;2022-08-01T01:41:10;161.30;;;146.40;;
38613;SDS011;24369;49.480;8.488;2022-08-01T01:43:37;169.43;;;153.95;;
38613;SDS011;24369;49.480;8.488;2022-08-01T01:46:05;169.73;;;153.35;;
38613;SDS011;24369;49.480;8.488;2022-08-01T01:48:31;167.55;;;152.32;;
38613;SDS011;24369;49.480;8.488;2022-08-01T01:50:58;159.30;;;144.75;;
38613;SDS011;24369;49.480;8.488;2022-08-01T01:53:25;171.23;;;155.20;;
38613;SDS011;24369;49.480;8.488;2022-08-01T01:55:53;165.07;;;149.50;;
38613;SDS011;24369;49.480;8.488;2022-08-01T01:58:22;162.85;;;147.00;;
38613;SDS011;24369;49.480;8.488;2022-08-01T02:00:49;170.27;;;154.00;;
38613;SDS011;24369;49.480;8.488;2022-08-01T02:03:17;175.23;;;158.90;;
38613;SDS011;24369;49.480;8.488;2022-08-01T02:05:44;167.68;;;151.80;;
38613;SDS011;24369;49.480;8.488;2022-08-01T02:08:12;168.73;;;153.43;;
38613;SDS011;24369;49.480;8.488;2022-08-01T02:10:40;168.68;;;153.05;;
38613;SDS011;24369;49.480;8.488;2022-08-01T02:13:06;173.57;;;158.25;;
38613;SDS011;24369;49.480;8.488;2022-08-01T02:15:33;193.90;;;176.80;;
38613;SDS011;24369;49.480;8.488;2022-08-01T02:18:04;177.90;;;160.93;;
38613;SDS011;24369;49.480;8.488;2022-08-01T02:20:32;180.25;;;162.98;;
38613;SDS011;24369;49.480;8.488;2022-08-01T02:23:06;159.25;;;144.77;;
38613;SDS011;24369;49.480;8.488;2022-08-01T02:25:39;176.65;;;160.38;;
38613;SDS011;24369;49.480;8.488;2022-08-01T02:28:32;161.80;;;147.10;;
38613;SDS011;24369;49.480;8.488;2022-08-01T02:31:04;170.48;;;155.52;;
38613;SDS011;24369;49.480;8.488;2022-08-01T02:33:40;173.93;;;156.57;;
38613;SDS011;24369;49.480;8.488;2022-08-01T02:36:08;165.30;;;150.95;;
38613;SDS011;24369;49.480;8.488;2022-08-01T02:38:37;161.88;;;146.40;;
38613;SDS011;24369;49.480;8.488;2022-08-01T02:41:08;162.40;;;147.98;;
38613;SDS011;24369;49.480;8.488;2022-08-01T02:43:38;174.60;;;157.05;;
38613;SDS011;24369;49.480;8.488;2022-08-01T02:46:08;153.95;;;139.98;;
38613;SDS011;24369;49.480;8.488;2022-08-01T02:48:37;174.35;;;158.50;;
38613;SDS011;24369;49.480;8.488;2022-08-01T02:51:05;164.52;;;148.95;;
38613;SDS011;24369;49.480;8.488;2022-08-01T02:53:33;166.07;;;150.55;;
38613;SDS011;24369;49.480;8.488;2022-08-01T02:56:03;153.50;;;139.70;;
38613;SDS011;24369;49.480;8.488;2022-08-01T02:58:30;182.13;;;164.45;;
38613;SDS011;24369;49.480;8.488;2022-08-01T03:00:58;166.68;;;150.68;;
38613;SDS011;24369;49.480;8.488;2022-08-01T03:03:24;168.10;;;151.90;;
38613;SDS011;24369;49.480;8.488;2022-08-01T03:05:50;155.07;;;139.85;;
38613;SDS011;24369;49.480;8.488;2022-08-01T03:08:16;157.85;;;143.27;;
38613;SDS011;24369;49.480;8.488;2022-08-01T03:10:44;166.23;;;150.30;;
38613;SDS011;24369;49.480;8.488;2022-08-01T03:13:11;159.23;;;144.48;;
38613;SDS011;24369;49.480;8.488;2022-08-01T03:15:40;173.70;;;156.35;;
38613;SDS011;24369;49.480;8.488;2022-08-01T03:18:08;149.27;;;135.32;;
38613;SDS011;24369;49.480;8.488;2022-08-01T03:20:36;175.75;;;158.80;;
38613;SDS011;24369;49.480;8.488;2022-08-01T03:23:03;155.32;;;140.68;;
38613;SDS011;24369;49.480;8.488;2022-08-01T03:25:31;204.18;;;185.80;;
38613;SDS011;24369;49.480;8.488;2022-08-01T03:28:01;155.98;;;141.13;;
38613;SDS011;24369;49.480;8.488;2022-08-01T03:30:29;185.65;;;167.60;;
38613;SDS011;24369;49.480;8.488;2022-08-01T03:32:57;153.65;;;139.50;;
38613;SDS011;24369;49.480;8.488;2022-08-01T03:35:23;179.18;;;162.38;;
38613;SDS011;24369;49.480;8.488;2022-08-01T03:37:54;171.82;;;154.57;;
38613;SDS011;24369;49.480;8.488;2022-08-01T03:40:23;175.10;;;158.35;;
38613;SDS011;24369;49.480;8.488;2022-08-01T03:42:56;164.90;;;148.65;;
38613;SDS011;24369;49.480;8.488;2022-08-01T03:45:27;178.30;;;160.48;;
38613;SDS011;24369;49.480;8.488;2022-08-01T03:47:59;157.03;;;142.10;;
38613;SDS011;24369;49.480;8.488;2022-08-01T03:50:27;178.52;;;161.02;;
38613;SDS011;24369;49.480;8.488;2022-08-01T03:52:54;170.27;;;154.25;;
38613;SDS011;24369;49.480;8.488;2022-08-01T03:55:24;180.95;;;163.27;;
38613;SDS011;24369;49.480;8.488;2022-08-01T03:57:50;160.15;;;144.30;;
38613;SDS011;24369;49.480;8.488;2022-08-01T04:00:17;149.88;;;134.98;;
38613;SDS011;24369;49.480;8.488;2022-08-01T04:02:46;159.32;;;143.85;;
38613;SDS011;24369;49.480;8.488;2022-08-01T04:05:13;162.50;;;147.20;;
38613;SDS011;24369;49.480;8.488;2022-08-01T04:07:39;176.13;;;159.43;;
38613;SDS011;24369;49.480;8.488;2022-08-01T04:10:07;180.48;;;164.00;;
38613;SDS011;24369;49.480;8.488;2022-08-01T04:12:33;183.02;;;165.27;;
38613;SDS011;24369;49.480;8.488;2022-08-01T04:14:59;158.68;;;144.15;;
38613;SDS011;24369;49.480;8.488;2022-08-01T04:17:24;177.98;;;160.88;;
38613;SDS011;24369;49.480;8.488;2022-08-01T04:19:50;165.02;;;148.32;;
38613;SDS011;24369;49.480;8.488;2022-08-01T04:22:15;159.15;;;144.18;;
38613;SDS011;24369;49.480;8.488;2022-08-01T04:24:42;173.32;;;156.52;;
38613;SDS011;24369;49.480;8.488;2022-08-01T04:27:14;168.93;;;153.60;;
38613;SDS011;24369;49.480;8.488;2022-08-01T04:29:44;167.00;;;150.98;;
38613;SDS011;24369;49.480;8.488;2022-08-01T04:32:12;170.98;;;155.68;;
38613;SDS011;24369;49.480;8.488;2022-08-01T04:34:39;197.48;;;179.80;;
38613;SDS011;24369;49.480;8.488;2022-08-01T04:37:08;172.20;;;157.00;;
38613;SDS011;24369;49.480;8.488;2022-08-01T04:39:36;187.77;;;171.18;;
38613;SDS011;24369;49.480;8.488;2022-08-01T04:42:02;166.80;;;151.90;;
38613;SDS011;24369;49.480;8.488;2022-08-01T04:44:29;172.50;;;156.15;;
38613;SDS011;24369;49.480;8.488;2022-08-01T04:46:57;179.43;;;162.57;;
38613;SDS011;24369;49.480;8.488;2022-08-01T04:49:25;157.02;;;141.38;;
38613;SDS011;24369;49.480;8.488;2022-08-01T04:51:52;167.68;;;151.48;;
38613;SDS011;24369;49.480;8.488;2022-08-01T04:54:23;155.60;;;140.88;;
38613;SDS011;24369;49.480;8.488;2022-08-01T04:56:49;174.02;;;156.93;;
38613;SDS011;24369;49.480;8.488;2022-08-01T04:59:15;177.05;;;159.75;;
38613;SDS011;24369;49.480;8.488;2022-08-01T05:01:59;178.65;;;160.13;;
38613;SDS011;24369;49.480;8.488;2022-08-01T05:04:24;165.23;;;149.48;;
38613;SDS011;24369;49.480;8.488;2022-08-01T05:06:49;157.73;;;141.90;;
38613;SDS011;24369;49.480;8.488;2022-08-01T05:09:15;167.27;;;150.70;;
38613;SDS011;24369;49.480;8.488;2022-08-01T05:11:40;164.90;;;148.30;;
38613;SDS011;24369;49.480;8.488;2022-08-01T05:14:06;158.23;;;143.07;;
38613;SDS011;24369;49.480;8.488;2022-08-01T05:16:31;180.18;;;163.02;;
38613;SDS011;24369;49.480;8.488;2022-08-01T05:18:57;178.07;;;160.75;;
38613;SDS011;24369;49.480;8.488;2022-08-01T05:21:22;157.35;;;142.48;;
38613;SDS011;24369;49.480;8.488;2022-08-01T05:23:47;169.05;;;152.18;;
38613;SDS011;24369;49.480;8.488;2022-08-01T05:26:14;159.43;;;144.88;;
38613;SDS011;24369;49.480;8.488;2022-08-01T05:28:39;179.07;;;161.90;;
38613;SDS011;24369;49.480;8.488;2022-08-01T05:31:05;158.60;;;144.13;;
38613;SDS011;24369;49.480;8.488;2022-08-01T05:33:30;158.70;;;143.00;;
38613;SDS011;24369;49.480;8.488;2022-08-01T05:35:55;171.48;;;154.95;;
38613;SDS011;24369;49.480;8.488;2022-08-01T05:38:21;152.85;;;138.48;;
38613;SDS011;24369;49.480;8.488;2022-08-01T05:40:46;171.50;;;154.20;;
38613;SDS011;24369;49.480;8.488;2022-08-01T05:43:11;157.50;;;142.60;;
38613;SDS011;24369;49.480;8.488;2022-08-01T05:45:37;168.32;;;152.20;;
38613;SDS011;24369;49.480;8.488;2022-08-01T05:48:02;155.32;;;140.07;;
38613;SDS011;24369;49.480;8.488;2022-08-01T05:50:28;174.10;;;157.18;;
38613;SDS011;24369;49.480;8.488;2022-08-01T05:52:53;176.50;;;160.00;;
38613;SDS011;24369;49.480;8.488;2022-08-01T05:55:18;168.57;;;151.20;;
38613;SDS011;24369;49.480;8.488;2022-08-01T05:57:44;174.38;;;157.73;;
38613;SDS011;24369;49.480;8.488;2022-08-01T06:00:09;168.20;;;152.35;;
38613;SDS011;24369;49.480;8.488;2022-08-01T06:02:39;177.27;;;159.77;;
38613;SDS011;24369;49.480;8.488;2022-08-01T06:05:07;157.55;;;142.30;;
38613;SDS011;24369;49.480;8.488;2022-08-01T06:07:32;163.38;;;147.30;;
38613;SDS011;24369;49.480;8.488;2022-08-01T06:09:58;174.52;;;157.60;;
38613;SDS011;24369;49.480;8.488;2022-08-01T06:12:23;166.30;;;150.63;;
38613;SDS011;24369;49.480;8.488;2022-08-01T06:14:49;186.98;;;167.93;;
38613;SDS011;24369;49.480;8.488;2022-08-01T06:17:14;172.60;;;156.98;;
38613;SDS011;24369;49.480;8.488;2022-08-01T06:19:39;209.18;;;188.57;;
38613;SDS011;24369;49.480;8.488;2022-08-01T06:22:05;162.30;;;147.65;;
38613;SDS011;24369;49.480;8.488;2022-08-01T06:24:30;187.85;;;170.30;;
38613;SDS011;24369;49.480;8.488;2022-08-01T06:26:56;191.50;;;174.30;;
38613;SDS011;24369;49.480;8.488;2022-08-01T06:29:21;192.60;;;176.18;;
38613;SDS011;24369;49.480;8.488;2022-08-01T06:31:46;190.27;;;172.15;;
38613;SDS011;24369;49.480;8.488;2022-08-01T06:34:12;186.23;;;169.43;;
38613;SDS011;24369;49.480;8.488;2022-08-01T06:36:37;196.82;;;177.88;;
38613;SDS011;24369;49.480;8.488;2022-08-01T06:39:03;205.52;;;186.45;;
38613;SDS011;24369;49.480;8.488;2022-08-01T06:41:28;180.00;;;163.65;;
38613;SDS011;24369;49.480;8.488;2022-08-01T06:43:53;199.68;;;180.85;;
38613;SDS011;24369;49.480;8.488;2022-08-01T06:46:19;175.20;;;159.88;;
38613;SDS011;24369;49.480;8.488;2022-08-01T06:48:44;188.60;;;171.18;;
38613;SDS011;24369;49.480;8.488;2022-08-01T06:51:10;164.82;;;149.93;;
38613;SDS011;24369;49.480;8.488;2022-08-01T06:53:39;197.00;;;178.70;;
38613;SDS011;24369;49.480;8.488;2022-08-01T06:56:05;199.10;;;181.90;;
38613;SDS011;24369;49.480;8.488;2022-08-01T06:58:31;175.63;;;159.88;;
38613;SDS011;24369;49.480;8.488;2022-08-01T07:00:56;191.93;;;174.98;;
38613;SDS011;24369;49.480;8.488;2022-08-01T07:03:22;176.77;;;161.23;;
38613;SDS011;24369;49.480;8.488;2022-08-01T07:05:47;176.85;;;161.02;;
38613;SDS011;24369;49.480;8.488;2022-08-01T07:08:13;199.23;;;180.88;;
38613;SDS011;24369;49.480;8.488;2022-08-01T07:10:38;215.65;;;196.00;;
38613;SDS011;24369;49.480;8.488;2022-08-01T07:13:04;173.07;;;157.05;;
38613;SDS011;24369;49.480;8.488;2022-08-01T07:15:29;178.30;;;162.80;;
38613;SDS011;24369;49.480;8.488;2022-08-01T07:17:54;221.50;;;201.38;;
38613;SDS011;24369;49.480;8.488;2022-08-01T07:20:21;184.13;;;167.45;;
38613;SDS011;24369;49.480;8.488;2022-08-01T07:22:47;198.85;;;180.23;;
38613;SDS011;24369;49.480;8.488;2022-08-01T07:25:13;204.82;;;188.13;;
38613;SDS011;24369;49.480;8.488;2022-08-01T07:27:39;208.85;;;189.68;;
38613;SDS011;24369;49.480;8.488;2022-08-01T07:30:04;187.90;;;171.63;;
38613;SDS011;24369;49.480;8.488;2022-08-01T07:32:30;234.20;;;214.45;;
38613;SDS011;24369;49.480;8.488;2022-08-01T07:34:56;211.35;;;195.43;;
38613;SDS011;24369;49.480;8.488;2022-08-01T07:37:22;184.15;;;168.88;;
38613;SDS011;24369;49.480;8.488;2022-08-01T07:39:48;220.75;;;199.88;;
38613;SDS011;24369;49.480;8.488;2022-08-01T07:42:13;198.43;;;182.05;;
38613;SDS011;24369;49.480;8.488;2022-08-01T07:44:39;202.35;;;184.40;;
38613;SDS011;24369;49.480;8.488;2022-08-01T07:47:04;186.23;;;169.57;;
38613;SDS011;24369;49.480;8.488;2022-08-01T07:49:30;185.75;;;169.75;;
38613;SDS011;24369;49.480;8.488;2022-08-01T07:51:56;209.75;;;191.35;;
38613;SDS011;24369;49.480;8.488;2022-08-01T07:54:21;204.40;;;186.65;;
38613;SDS011;24369;49.480;8.488;2022-08-01T07:56:49;215.52;;;196.98;;
38613;SDS011;24369;49.480;8.488;2022-08-01T07:59:15;209.18;;;191.40;;
38613;SDS011;24369;49.480;8.488;2022-08-01T08:01:40;215.75;;;197.05;;
38613;SDS011;24369;49.480;8.488;2022-08-01T08:04:06;193.45;;;177.10;;
38613;SDS011;24369;49.480;8.488;2022-08-01T08:06:32;212.27;;;194.05;;
38613;SDS011;24369;49.480;8.488;2022-08-01T08:08:57;203.40;;;182.88;;
38613;SDS011;24369;49.480;8.488;2022-08-01T08:11:23;200.52;;;184.23;;
38613;SDS011;24369;49.480;8.488;2022-08-01T08:13:48;209.68;;;191.27;;
38613;SDS011;24369;49.480;8.488;2022-08-01T08:16:13;185.77;;;170.57;;
38613;SDS011;24369;49.480;8.488;2022-08-01T08:18:39;189.10;;;172.70;;
38613;SDS011;24369;49.480;8.488;2022-08-01T08:21:04;213.80;;;196.07;;
38613;SDS011;24369;49.480;8.488;2022-08-01T08:23:29;200.38;;;183.27;;
38613;SDS011;24369;49.480;8.488;2022-08-01T08:26:13;200.38;;;183.10;;
38613;SDS011;24369;49.480;8.488;2022-08-01T08:28:39;205.15;;;186.80;;
38613;SDS011;24369;49.480;8.488;2022-08-01T08:31:04;199.23;;;182.80;;
38613;SDS011;24369;49.480;8.488;2022-08-01T08:33:30;216.32;;;198.95;;
38613;SDS011;24369;49.480;8.488;2022-08-01T08:35:55;218.25;;;197.82;;
38613;SDS011;24369;49.480;8.488;2022-08-01T08:38:21;205.15;;;189.52;;
38613;SDS011;24369;49.480;8.488;2022-08-01T08:40:46;217.30;;;195.75;;
38613;SDS011;24369;49.480;8.488;2022-08-01T08:43:12;223.07;;;205.60;;
38613;SDS011;24369;49.480;8.488;2022-08-01T08:45:38;221.65;;;203.75;;
38613;SDS011;24369;49.480;8.488;2022-08-01T08:48:05;215.77;;;197.13;;
38613;SDS011;24369;49.480;8.488;2022-08-01T08:50:30;204.45;;;187.82;;
38613;SDS011;24369;49.480;8.488;2022-08-01T08:52:56;208.05;;;187.68;;
38613;SDS011;24369;49.480;8.488;2022-08-01T08:55:25;194.55;;;175.93;;
38613;SDS011;24369;49.480;8.488;2022-08-01T08:57:52;192.55;;;174.32;;
38613;SDS011;24369;49.480;8.488;2022-08-01T09:00:18;186.70;;;170.57;;
38613;SDS011;24369;49.480;8.488;2022-08-01T09:02:44;186.27;;;169.48;;
38613;SDS011;24369;49.480;8.488;2022-08-01T09:05:11;189.27;;;173.57;;
38613;SDS011;24369;49.480;8.488;2022-08-01T09:07:37;199.55;;;181.80;;
38613;SDS011;24369;49.480;8.488;2022-08-01T09:10:04;206.30;;;190.30;;
38613;SDS011;24369;49.480;8.488;2022-08-01T09:12:30;212.45;;;195.35;;
38613;SDS011;24369;49.480;8.488;2022-08-01T09:14:56;231.70;;;212.70;;
38613;SDS011;24369;49.480;8.488;2022-08-01T09:17:22;222.32;;;205.88;;
38613;SDS011;24369;49.480;8.488;2022-08-01T09:19:52;226.80;;;206.63;;
38613;SDS011;24369;49.480;8.488;2022-08-01T09:22:23;195.73;;;179.32;;
38613;SDS011;24369;49.480;8.488;2022-08-01T09:25:03;212.20;;;194.23;;
38613;SDS011;24369;49.480;8.488;2022-08-01T09:27:32;217.00;;;199.15;;
38613;SDS011;24369;49.480;8.488;2022-08-01T09:30:08;212.05;;;195.40;;
38613;SDS011;24369;49.480;8.488;2022-08-01T09:35:23;209.95;;;192.13;;
38613;SDS011;24369;49.480;8.488;2022-08-01T09:37:50;207.55;;;188.68;;
38613;SDS011;24369;49.480;8.488;2022-08-01T09:40:15;205.02;;;188.20;;
38613;SDS011;24369;49.480;8.488;2022-08-01T09:42:41;197.57;;;181.02;;
38613;SDS011;24369;49.480;8.488;2022-08-01T09:45:06;170.75;;;153.82;;
38613;SDS011;24369;49.480;8.488;2022-08-01T09:47:38;176.05;;;161.30;;
38613;SDS011;24369;49.480;8.488;2022-08-01T09:50:04;181.93;;;166.27;;
38613;SDS011;24369;49.480;8.488;2022-08-01T09:52:31;177.18;;;162.52;;
38613;SDS011;24369;49.480;8.488;2022-08-01T09:54:59;194.88;;;177.25;;
38613;SDS011;24369;49.480;8.488;2022-08-01T09:57:27;178.07;;;163.25;;
38613;SDS011;24369;49.480;8.488;2022-08-01T09:59:54;208.07;;;188.13;;
38613;SDS011;24369;49.480;8.488;2022-08-01T10:04:56;190.70;;;172.40;;
38613;SDS011;24369;49.480;8.488;2022-08-01T10:07:23;176.18;;;161.52;;
38613;SDS011;24369;49.480;8.488;2022-08-01T10:09:48;189.73;;;171.40;;
38613;SDS011;24369;49.480;8.488;2022-08-01T10:12:14;197.25;;;179.80;;
38613;SDS011;24369;49.480;8.488;2022-08-01T10:14:43;188.63;;;172.98;;
38613;SDS011;24369;49.480;8.488;2022-08-01T10:17:11;194.15;;;177.25;;
38613;SDS011;24369;49.480;8.488;2022-08-01T10:19:39;179.32;;;164.63;;
38613;SDS011;24369;49.480;8.488;2022-08-01T10:22:10;207.38;;;187.05;;
38613;SDS011;24369;49.480;8.488;2022-08-01T10:24:41;173.63;;;159.75;;
38613;SDS011;24369;49.480;8.488;2022-08-01T10:27:09;188.88;;;172.02;;
38613;SDS011;24369;49.480;8.488;2022-08-01T10:29:37;177.20;;;162.98;;
38613;SDS011;24369;49.480;8.488;2022-08-01T10:32:06;184.07;;;167.07;;
38613;SDS011;24369;49.480;8.488;2022-08-01T10:34:34;178.57;;;164.25;;
38613;SDS011;24369;49.480;8.488;2022-08-01T10:37:02;190.50;;;170.82;;
38613;SDS011;24369;49.480;8.488;2022-08-01T10:39:29;172.07;;;157.10;;
38613;SDS011;24369;49.480;8.488;2022-08-01T10:41:55;174.20;;;158.10;;
38613;SDS011;24369;49.480;8.488;2022-08-01T10:44:22;173.93;;;159.45;;
38613;SDS011;24369;49.480;8.488;2022-08-01T10:46:50;185.32;;;167.55;;
38613;SDS011;24369;49.480;8.488;2022-08-01T10:49:19;178.43;;;160.48;;
38613;SDS011;24369;49.480;8.488;2022-08-01T10:51:48;171.38;;;154.02;;
38613;SDS011;24369;49.480;8.488;2022-08-01T10:54:14;173.40;;;157.85;;
38613;SDS011;24369;49.480;8.488;2022-08-01T10:59:09;212.98;;;193.02;;
38613;SDS011;24369;49.480;8.488;2022-08-01T11:01:37;196.18;;;180.15;;
38613;SDS011;24369;49.480;8.488;2022-08-01T11:04:07;212.05;;;191.55;;
38613;SDS011;24369;49.480;8.488;2022-08-01T11:14:31;194.55;;;178.32;;
38613;SDS011;24369;49.480;8.488;2022-08-01T11:17:29;190.32;;;173.82;;
38613;SDS011;24369;49.480;8.488;2022-08-01T11:25:24;202.23;;;185.02;;
38613;SDS011;24369;49.480;8.488;2022-08-01T11:28:36;194.40;;;177.35;;
38613;SDS011;24369;49.480;8.488;2022-08-01T11:30:43;177.80;;;162.90;;
38613;SDS011;24369;49.480;8.488;2022-08-01T11:33:09;191.15;;;173.73;;
38613;SDS011;24369;49.480;8.488;2022-08-01T11:35:36;170.35;;;155.75;;
38613;SDS011;24369;49.480;8.488;2022-08-01T11:43:58;192.95;;;175.98;;
38613;SDS011;24369;49.480;8.488;2022-08-01T11:54:38;165.70;;;150.13;;
38613;SDS011;24369;49.480;8.488;2022-08-01T11:57:12;175.75;;;157.27;;
38613;SDS011;24369;49.480;8.488;2022-08-01T12:07:22;169.50;;;154.00;;
38613;SDS011;24369;49.480;8.488;2022-08-01T12:09:56;167.75;;;152.07;;
38613;SDS011;24369;49.480;8.488;2022-08-01T12:12:28;168.32;;;154.15;;
38613;SDS011;24369;49.480;8.488;2022-08-01T12:14:55;171.45;;;154.73;;
38613;SDS011;24369;49.480;8.488;2022-08-01T12:17:28;182.85;;;166.93;;
38613;SDS011;24369;49.480;8.488;2022-08-01T12:19:55;180.18;;;163.15;;
38613;SDS011;24369;49.480;8.488;2022-08-01T12:22:22;182.25;;;166.25;;
38613;SDS011;24369;49.480;8.488;2022-08-01T12:24:48;187.93;;;172.60;;
38613;SDS011;24369;49.480;8.488;2022-08-01T12:27:23;175.57;;;159.75;;
38613;SDS011;24369;49.480;8.488;2022-08-01T12:29:50;172.93;;;157.85;;
38613;SDS011;24369;49.480;8.488;2022-08-01T12:34:52;183.40;;;167.73;;
38613;SDS011;24369;49.480;8.488;2022-08-01T12:37:19;184.30;;;168.07;;
38613;SDS011;24369;49.480;8.488;2022-08-01T12:39:45;189.70;;;173.50;;
38613;SDS011;24369;49.480;8.488;2022-08-01T12:42:16;192.60;;;174.93;;
38613;SDS011;24369;49.480;8.488;2022-08-01T12:44:44;186.27;;;171.23;;
38613;SDS011;24369;49.480;8.488;2022-08-01T12:47:12;183.50;;;166.77;;
38613;SDS011;24369;49.480;8.488;2022-08-01T12:49:39;159.48;;;146.15;;
38613;SDS011;24369;49.480;8.488;2022-08-01T12:52:07;187.63;;;168.00;;
38613;SDS011;24369;49.480;8.488;2022-08-01T12:57:28;155.77;;;141.55;;
38613;SDS011;24369;49.480;8.488;2022-08-01T13:02:32;156.75;;;142.55;;
38613;SDS011;24369;49.480;8.488;2022-08-01T13:04:58;161.98;;;146.73;;
38613;SDS011;24369;49.480;8.488;2022-08-01T13:07:34;157.70;;;143.15;;
38613;SDS011;24369;49.480;8.488;2022-08-01T13:10:27;155.65;;;140.93;;
38613;SDS011;24369;49.480;8.488;2022-08-01T13:12:57;163.95;;;149.23;;
38613;SDS011;24369;49.480;8.488;2022-08-01T13:17:51;158.98;;;146.00;;
38613;SDS011;24369;49.480;8.488;2022-08-01T13:20:21;175.48;;;158.07;;
38613;SDS011;24369;49.480;8.488;2022-08-01T13:22:47;167.50;;;153.38;;
38613;SDS011;24369;49.480;8.488;2022-08-01T13:25:13;178.82;;;161.85;;
38613;SDS011;24369;49.480;8.488;2022-08-01T13:27:41;192.63;;;175.52;;
38613;SDS011;24369;49.480;8.488;2022-08-01T13:30:25;195.80;;;178.60;;
38613;SDS011;24369;49.480;8.488;2022-08-01T13:32:57;188.73;;;173.80;;
38613;SDS011;24369;49.480;8.488;2022-08-01T13:35:23;195.32;;;178.40;;
38613;SDS011;24369;49.480;8.488;2022-08-01T13:37:49;175.40;;;161.77;;
38613;SDS011;24369;49.480;8.488;2022-08-01T13:40:22;203.80;;;184.35;;
38613;SDS011;24369;49.480;8.488;2022-08-01T13:42:52;195.88;;;180.05;;
38613;SDS011;24369;49.480;8.488;2022-08-01T13:45:21;203.18;;;184.27;;
38613;SDS011;24369;49.480;8.488;2022-08-01T13:47:47;174.05;;;159.32;;
38613;SDS011;24369;49.480;8.488;2022-08-01T13:50:13;181.82;;;165.82;;
38613;SDS011;24369;49.480;8.488;2022-08-01T13:52:38;170.02;;;155.00;;
38613;SDS011;24369;49.480;8.488;2022-08-01T13:55:04;174.20;;;158.23;;
38613;SDS011;24369;49.480;8.488;2022-08-01T13:57:30;164.60;;;150.13;;
38613;SDS011;24369;49.480;8.488;2022-08-01T13:59:56;179.63;;;161.82;;
38613;SDS011;24369;49.480;8.488;2022-08-01T14:02:24;173.77;;;158.55;;
38613;SDS011;24369;49.480;8.488;2022-08-01T14:04:51;177.63;;;162.73;;
38613;SDS011;24369;49.480;8.488;2022-08-01T14:07:16;181.63;;;164.05;;
38613;SDS011;24369;49.480;8.488;2022-08-01T14:09:41;182.65;;;165.00;;
38613;SDS011;24369;49.480;8.488;2022-08-01T14:12:07;187.70;;;170.20;;
38613;SDS011;24369;49.480;8.488;2022-08-01T14:14:33;166.43;;;152.57;;
38613;SDS011;24369;49.480;8.488;2022-08-01T14:16:58;174.98;;;159.35;;
38613;SDS011;24369;49.480;8.488;2022-08-01T14:19:23;185.90;;;168.07;;
38613;SDS011;24369;49.480;8.488;2022-08-01T14:21:49;188.07;;;172.00;;
38613;SDS011;24369;49.480;8.488;2022-08-01T14:24:17;170.13;;;154.95;;
38613;SDS011;24369;49.480;8.488;2022-08-01T14:26:42;170.73;;;156.93;;
38613;SDS011;24369;49.480;8.488;2022-08-01T14:29:08;197.75;;;179.07;;
38613;SDS011;24369;49.480;8.488;2022-08-01T14:31:33;187.82;;;171.85;;
38613;SDS011;24369;49.480;8.488;2022-08-01T14:33:58;168.13;;;152.65;;
38613;SDS011;24369;49.480;8.488;2022-08-01T14:36:24;164.18;;;150.18;;
38613;SDS011;24369;49.480;8.488;2022-08-01T14:38:49;164.20;;;150.60;;
38613;SDS011;24369;49.480;8.488;2022-08-01T14:41:15;164.02;;;149.68;;
38613;SDS011;24369;49.480;8.488;2022-08-01T14:43:40;168.30;;;154.18;;
38613;SDS011;24369;49.480;8.488;2022-08-01T14:46:05;160.98;;;146.65;;
38613;SDS011;24369;49.480;8.488;2022-08-01T14:48:32;173.45;;;157.13;;
38613;SDS011;24369;49.480;8.488;2022-08-01T14:50:58;165.05;;;150.10;;
38613;SDS011;24369;49.480;8.488;2022-08-01T14:53:27;154.57;;;141.13;;
38613;SDS011;24369;49.480;8.488;2022-08-01T14:55:52;176.07;;;159.15;;
38613;SDS011;24369;49.480;8.488;2022-08-01T14:58:18;167.95;;;152.30;;
38613;SDS011;24369;49.480;8.488;2022-08-01T15:00:43;149.90;;;137.13;;